Time;durP1;ratioP1;P1;durP2;ratioP2;P2;SDS_P1;SDS_P2;PMS_P1;PMS_P2;Temp;Humidity;BMP_temperature;BMP_pressure;BME280_temperature;BME280_humidity;BME280_pressure;Samples;Min_cycle;Max_cycle;Signal;HPM_P1;HPM_P2
2022/03/25 00:00:44;;;;;;;;;0.00;0.00;;;;;;;;2;288086372;288086372;-75
2022/03/25 00:09:00;;;;;;;;;0.00;0.00;;;;;;;;2;261077068;261077068;-75
2022/03/25 00:18:27;;;;;;;;;0.00;0.00;;;;;;;;2;288083533;288083533;-75
2022/03/25 00:37:00;;;;;;;;;0.00;0.00;;;;;;;;177629;27;261076195;-74
2022/03/25 00:46:28;;;;;;;;;0.00;0.00;;;;;;;;2;288086901;288086901;-74
2022/03/25 00:54:43;;;;;;;;;0.00;0.00;;;;;;;;2;261079212;261079212;-74
2022/03/25 01:04:11;;;;;;;;;0.00;0.00;;;;;;;;2;288084837;288084837;-74
2022/03/25 01:12:26;;;;;;;;;0.00;0.00;;;;;;;;2;261076114;261076114;-74
2022/03/25 01:21:56;;;;;;;;;0.00;0.00;;;;;;;;2;288084960;288084960;-74
2022/03/25 01:30:12;;;;;;;;;0.00;0.00;;;;;;;;2;261078618;261078618;-74
2022/03/25 01:39:40;;;;;;;;;0.00;0.00;;;;;;;;2;288086189;288086189;-74
2022/03/25 01:47:55;;;;;;;;;0.00;0.00;;;;;;;;2;261077349;261077349;-74
2022/03/25 01:57:24;;;;;;;;;0.00;0.00;;;;;;;;2;288084331;288084331;-74
2022/03/25 02:05:40;;;;;;;;;0.00;0.00;;;;;;;;2;261079996;261079996;-74
2022/03/25 02:15:08;;;;;;;;;0.00;0.00;;;;;;;;2;288086966;288086966;-74
2022/03/25 02:23:23;;;;;;;;;0.00;0.00;;;;;;;;2;261078056;261078056;-74
2022/03/25 02:32:51;;;;;;;;;0.00;0.00;;;;;;;;2;288087197;288087197;-74
2022/03/25 02:41:06;;;;;;;;;0.00;0.00;;;;;;;;2;261077439;261077439;-74
2022/03/25 02:50:34;;;;;;;;;0.00;0.00;;;;;;;;2;288084487;288084487;-74
2022/03/25 02:58:50;;;;;;;;;0.00;0.00;;;;;;;;2;261078599;261078599;-74
2022/03/25 03:08:17;;;;;;;;;0.00;0.00;;;;;;;;2;288086918;288086918;-74
2022/03/25 03:16:33;;;;;;;;;0.00;0.00;;;;;;;;2;261077961;261077961;-74
2022/03/25 03:26:00;;;;;;;;;0.00;0.00;;;;;;;;2;288084871;288084871;-74
2022/03/25 03:34:16;;;;;;;;;0.00;0.00;;;;;;;;2;261076537;261076537;-74
2022/03/25 03:43:43;;;;;;;;;0.00;0.00;;;;;;;;2;288086649;288086649;-74
2022/03/25 03:51:59;;;;;;;;;0.00;0.00;;;;;;;;2;261076178;261076178;-74
2022/03/25 04:01:26;;;;;;;;;0.00;0.00;;;;;;;;2;288083414;288083414;-75
2022/03/25 04:09:42;;;;;;;;;0.00;0.00;;;;;;;;2;261077722;261077722;-75
2022/03/25 04:19:09;;;;;;;;;0.00;0.00;;;;;;;;2;288084072;288084072;-75
2022/03/25 04:27:25;;;;;;;;;0.00;0.00;;;;;;;;2;261077240;261077240;-75
2022/03/25 04:36:52;;;;;;;;;0.00;0.00;;;;;;;;2;288084166;288084166;-75
2022/03/25 04:45:08;;;;;;;;;0.00;0.00;;;;;;;;2;261076438;261076438;-75
2022/03/25 04:54:36;;;;;;;;;0.00;0.00;;;;;;;;2;288085088;288085088;-75
2022/03/25 05:02:52;;;;;;;;;0.00;0.00;;;;;;;;2;261077980;261077980;-75
2022/03/25 05:12:19;;;;;;;;;0.00;0.00;;;;;;;;2;288083226;288083226;-75
2022/03/25 05:20:36;;;;;;;;;0.00;0.00;;;;;;;;2;261075392;261075392;-75
2022/03/25 05:30:04;;;;;;;;;0.00;0.00;;;;;;;;2;288086603;288086603;-75
2022/03/25 05:38:19;;;;;;;;;0.00;0.00;;;;;;;;2;261077545;261077545;-75
2022/03/25 05:47:47;;;;;;;;;0.00;0.00;;;;;;;;2;288083854;288083854;-75
2022/03/25 05:56:05;;;;;;;;;0.00;0.00;;;;;;;;2;261076381;261076381;-75
2022/03/25 06:05:32;;;;;;;;;0.00;0.00;;;;;;;;2;288086296;288086296;-75
2022/03/25 06:13:48;;;;;;;;;0.00;0.00;;;;;;;;2;261076218;261076218;-74
2022/03/25 06:23:15;;;;;;;;;0.00;0.00;;;;;;;;2;288083360;288083360;-73
2022/03/25 06:31:31;;;;;;;;;0.00;0.00;;;;;;;;2;261077771;261077771;-73
2022/03/25 06:41:00;;;;;;;;;0.00;0.00;;;;;;;;2;288082591;288082591;-73
2022/03/25 06:49:15;;;;;;;;;0.00;0.00;;;;;;;;2;261076491;261076491;-73
2022/03/25 06:58:43;;;;;;;;;0.00;0.00;;;;;;;;2;288081418;288081418;-72
2022/03/25 07:06:59;;;;;;;;;0.00;0.00;;;;;;;;2;261075636;261075636;-71
2022/03/25 07:16:26;;;;;;;;;0.00;0.00;;;;;;;;2;288082335;288082335;-73
2022/03/25 07:24:41;;;;;;;;;0.00;0.00;;;;;;;;2;261075626;261075626;-74
2022/03/25 07:34:09;;;;;;;;;0.00;0.00;;;;;;;;2;288083035;288083035;-73
2022/03/25 07:42:25;;;;;;;;;0.00;0.00;;;;;;;;2;261077585;261077585;-72
2022/03/25 07:51:53;;;;;;;;;0.00;0.00;;;;;;;;2;288095026;288095026;-72
2022/03/25 08:00:12;;;;;;;;;0.00;0.00;;;;;;;;2;261077618;261077618;-72
2022/03/25 08:09:39;;;;;;;;;0.00;0.00;;;;;;;;2;288082112;288082112;-72
2022/03/25 08:18:00;;;;;;;;;0.00;0.00;;;;;;;;2;261074225;261074225;-72
2022/03/25 08:36:02;;;;;;;;;0.00;0.00;;;;;;;;2;261075949;261075949;-72
2022/03/25 08:45:30;;;;;;;;;0.00;0.00;;;;;;;;2;288081392;288081392;-72
2022/03/25 08:53:46;;;;;;;;;0.00;0.00;;;;;;;;2;261075110;261075110;-72
2022/03/25 09:03:13;;;;;;;;;0.00;0.00;;;;;;;;2;288085071;288085071;-72
2022/03/25 09:11:30;;;;;;;;;0.00;0.00;;;;;;;;2;261075941;261075941;-73
2022/03/25 09:20:58;;;;;;;;;0.00;0.00;;;;;;;;2;288084150;288084150;-72
2022/03/25 09:29:13;;;;;;;;;0.00;0.00;;;;;;;;2;261075912;261075912;-73
2022/03/25 09:38:41;;;;;;;;;0.00;0.00;;;;;;;;2;288087650;288087650;-73
2022/03/25 09:46:57;;;;;;;;;0.00;0.00;;;;;;;;2;261076795;261076795;-73
2022/03/25 09:56:25;;;;;;;;;0.00;0.00;;;;;;;;2;288084760;288084760;-73
2022/03/25 10:04:41;;;;;;;;;0.00;0.00;;;;;;;;2;261075057;261075057;-73
2022/03/25 10:14:17;;;;;;;;;0.00;0.00;;;;;;;;2;288082054;288082054;-73
2022/03/25 10:22:32;;;;;;;;;0.00;0.00;;;;;;;;2;261075235;261075235;-73
2022/03/25 10:32:04;;;;;;;;;0.00;0.00;;;;;;;;2;288083853;288083853;-75
2022/03/25 10:40:19;;;;;;;;;0.00;0.00;;;;;;;;2;261075986;261075986;-75
2022/03/25 10:49:47;;;;;;;;;0.00;0.00;;;;;;;;2;288084805;288084805;-75
2022/03/25 10:58:07;;;;;;;;;0.00;0.00;;;;;;;;2;261076604;261076604;-75
2022/03/25 11:07:36;;;;;;;;;0.00;0.00;;;;;;;;2;288083398;288083398;-75
2022/03/25 11:15:54;;;;;;;;;0.00;0.00;;;;;;;;2;261077438;261077438;-75
2022/03/25 11:25:22;;;;;;;;;0.00;0.00;;;;;;;;2;288085877;288085877;-75
2022/03/25 11:33:56;;;;;;;;;0.00;0.00;;;;;;;;2;261075097;261075097;-76
2022/03/25 11:43:28;;;;;;;;;0.00;0.00;;;;;;;;2;288086564;288086564;-75
2022/03/25 11:51:43;;;;;;;;;0.00;0.00;;;;;;;;2;261078427;261078427;-75
2022/03/25 12:01:11;;;;;;;;;0.00;0.00;;;;;;;;2;288083023;288083023;-75
2022/03/25 12:09:33;;;;;;;;;0.00;0.00;;;;;;;;2;261076021;261076021;-76
2022/03/25 12:19:01;;;;;;;;;0.00;0.00;;;;;;;;2;288085210;288085210;-76
2022/03/25 12:27:17;;;;;;;;;0.00;0.00;;;;;;;;2;261075444;261075444;-76
2022/03/25 12:36:56;;;;;;;;;0.00;0.00;;;;;;;;2;288084251;288084251;-76
2022/03/25 12:45:11;;;;;;;;;0.00;0.00;;;;;;;;2;261075044;261075044;-75
2022/03/25 12:54:39;;;;;;;;;0.00;0.00;;;;;;;;2;288083217;288083217;-76
2022/03/25 13:02:55;;;;;;;;;0.00;0.00;;;;;;;;2;261076992;261076992;-75
2022/03/25 13:12:36;;;;;;;;;0.00;0.00;;;;;;;;2;288084198;288084198;-76
2022/03/25 13:20:51;;;;;;;;;0.00;0.00;;;;;;;;2;261077827;261077827;-75
2022/03/25 13:30:19;;;;;;;;;0.00;0.00;;;;;;;;2;288082342;288082342;-75
2022/03/25 13:38:37;;;;;;;;;0.00;0.00;;;;;;;;2;261076356;261076356;-75
2022/03/25 13:48:06;;;;;;;;;0.00;0.00;;;;;;;;2;288084774;288084774;-75
2022/03/25 13:56:22;;;;;;;;;0.00;0.00;;;;;;;;2;261078468;261078468;-76
2022/03/25 14:05:50;;;;;;;;;0.00;0.00;;;;;;;;2;288084830;288084830;-76
2022/03/25 14:14:05;;;;;;;;;0.00;0.00;;;;;;;;2;261077835;261077835;-76
2022/03/25 14:23:33;;;;;;;;;0.00;0.00;;;;;;;;2;288084802;288084802;-76
2022/03/25 14:31:48;;;;;;;;;0.00;0.00;;;;;;;;2;261076658;261076658;-76
2022/03/25 14:41:16;;;;;;;;;0.00;0.00;;;;;;;;2;288086429;288086429;-76
2022/03/25 14:49:31;;;;;;;;;0.00;0.00;;;;;;;;2;261076353;261076353;-76
2022/03/25 14:58:59;;;;;;;;;0.00;0.00;;;;;;;;2;288086234;288086234;-76
2022/03/25 15:07:14;;;;;;;;;0.00;0.00;;;;;;;;2;261078338;261078338;-77
2022/03/25 15:16:43;;;;;;;;;0.00;0.00;;;;;;;;2;288086654;288086654;-76
2022/03/25 15:24:58;;;;;;;;;0.00;0.00;;;;;;;;2;261077433;261077433;-76
2022/03/25 15:34:34;;;;;;;;;0.00;0.00;;;;;;;;2;288080846;288080846;-76
2022/03/25 15:42:49;;;;;;;;;0.00;0.00;;;;;;;;2;261079735;261079735;-76
2022/03/25 15:52:17;;;;;;;;;0.00;0.00;;;;;;;;2;288083879;288083879;-77
2022/03/25 16:00:34;;;;;;;;;0.00;0.00;;;;;;;;2;261077515;261077515;-76
2022/03/25 16:10:01;;;;;;;;;0.00;0.00;;;;;;;;2;288084095;288084095;-76
2022/03/25 16:18:17;;;;;;;;;0.00;0.00;;;;;;;;2;261077999;261077999;-75
2022/03/25 16:27:45;;;;;;;;;0.00;0.00;;;;;;;;2;288084548;288084548;-76
2022/03/25 16:36:01;;;;;;;;;0.00;0.00;;;;;;;;2;261074661;261074661;-75
2022/03/25 16:45:30;;;;;;;;;0.00;0.00;;;;;;;;2;288084122;288084122;-75
2022/03/25 16:53:46;;;;;;;;;0.00;0.00;;;;;;;;2;261075470;261075470;-76
2022/03/25 17:03:14;;;;;;;;;0.00;0.00;;;;;;;;2;288089382;288089382;-73
2022/03/25 17:11:29;;;;;;;;;0.00;0.00;;;;;;;;2;261074338;261074338;-76
2022/03/25 17:20:57;;;;;;;;;0.00;0.00;;;;;;;;2;288082548;288082548;-75
2022/03/25 17:29:12;;;;;;;;;0.00;0.00;;;;;;;;2;261076192;261076192;-75
2022/03/25 17:38:42;;;;;;;;;0.00;0.00;;;;;;;;2;288079943;288079943;-75
2022/03/25 17:46:58;;;;;;;;;0.00;0.00;;;;;;;;2;261077921;261077921;-75
2022/03/25 17:56:25;;;;;;;;;0.00;0.00;;;;;;;;2;288083270;288083270;-75
2022/03/25 18:04:42;;;;;;;;;0.00;0.00;;;;;;;;2;261075407;261075407;-75
2022/03/25 18:14:10;;;;;;;;;0.00;0.00;;;;;;;;2;288082867;288082867;-75
2022/03/25 18:22:27;;;;;;;;;0.00;0.00;;;;;;;;2;261076978;261076978;-75
2022/03/25 18:31:55;;;;;;;;;0.00;0.00;;;;;;;;2;288085353;288085353;-76
2022/03/25 18:40:11;;;;;;;;;0.00;0.00;;;;;;;;2;261073528;261073528;-76
2022/03/25 18:49:39;;;;;;;;;0.00;0.00;;;;;;;;2;288083783;288083783;-76
2022/03/25 18:57:55;;;;;;;;;0.00;0.00;;;;;;;;2;261076492;261076492;-76
2022/03/25 19:07:23;;;;;;;;;0.00;0.00;;;;;;;;2;288084799;288084799;-75
2022/03/25 19:15:38;;;;;;;;;0.00;0.00;;;;;;;;2;261075264;261075264;-78
2022/03/25 19:25:06;;;;;;;;;0.00;0.00;;;;;;;;2;288083038;288083038;-75
2022/03/25 19:33:21;;;;;;;;;0.00;0.00;;;;;;;;2;261075309;261075309;-75
2022/03/25 19:42:49;;;;;;;;;0.00;0.00;;;;;;;;2;288081982;288081982;-76
2022/03/25 19:51:05;;;;;;;;;0.00;0.00;;;;;;;;2;261077003;261077003;-75
2022/03/25 20:00:33;;;;;;;;;0.00;0.00;;;;;;;;2;288083601;288083601;-74
2022/03/25 20:08:48;;;;;;;;;0.00;0.00;;;;;;;;2;261075517;261075517;-74
2022/03/25 20:18:15;;;;;;;;;0.00;0.00;;;;;;;;2;288082138;288082138;-74
2022/03/25 20:26:31;;;;;;;;;0.00;0.00;;;;;;;;2;261075559;261075559;-75
2022/03/25 20:35:58;;;;;;;;;0.00;0.00;;;;;;;;2;288083445;288083445;-73
2022/03/25 20:44:14;;;;;;;;;0.00;0.00;;;;;;;;2;261075200;261075200;-73
2022/03/25 20:53:42;;;;;;;;;0.00;0.00;;;;;;;;2;288084430;288084430;-74
2022/03/25 21:01:57;;;;;;;;;0.00;0.00;;;;;;;;2;261077998;261077998;-75
2022/03/25 21:11:25;;;;;;;;;0.00;0.00;;;;;;;;2;288084524;288084524;-74
2022/03/25 21:19:41;;;;;;;;;0.00;0.00;;;;;;;;2;261077439;261077439;-75
2022/03/25 21:29:08;;;;;;;;;0.00;0.00;;;;;;;;2;288087386;288087386;-75
2022/03/25 21:37:24;;;;;;;;;0.00;0.00;;;;;;;;2;261077813;261077813;-74
2022/03/25 21:46:52;;;;;;;;;0.00;0.00;;;;;;;;2;288082705;288082705;-74
2022/03/25 21:55:08;;;;;;;;;0.00;0.00;;;;;;;;2;261071831;261071831;-74
2022/03/25 22:04:35;;;;;;;;;0.00;0.00;;;;;;;;2;288084514;288084514;-74
2022/03/25 22:12:51;;;;;;;;;0.00;0.00;;;;;;;;2;261077034;261077034;-74
2022/03/25 22:22:18;;;;;;;;;0.00;0.00;;;;;;;;2;288080860;288080860;-74
2022/03/25 22:30:34;;;;;;;;;0.00;0.00;;;;;;;;2;261076928;261076928;-74
2022/03/25 22:40:03;;;;;;;;;0.00;0.00;;;;;;;;2;288082579;288082579;-74
2022/03/25 22:48:18;;;;;;;;;0.00;0.00;;;;;;;;2;261074466;261074466;-74
2022/03/25 22:57:46;;;;;;;;;0.00;0.00;;;;;;;;2;288082791;288082791;-74
2022/03/25 23:06:01;;;;;;;;;0.00;0.00;;;;;;;;2;261076197;261076197;-74
2022/03/25 23:15:30;;;;;;;;;0.00;0.00;;;;;;;;2;288084119;288084119;-74
2022/03/25 23:23:46;;;;;;;;;0.00;0.00;;;;;;;;2;261074900;261074900;-74
2022/03/25 23:33:13;;;;;;;;;0.00;0.00;;;;;;;;2;288085717;288085717;-74
2022/03/25 23:41:29;;;;;;;;;0.00;0.00;;;;;;;;2;261079203;261079203;-74
2022/03/25 23:50:59;;;;;;;;;0.00;0.00;;;;;;;;2;288083167;288083167;-74
2022/03/25 23:59:14;;;;;;;;;0.00;0.00;;;;;;;;2;261075281;261075281;-74
